Terminal Aerodrome Forecast
Issued by NWS

Home | Current Version | Previous Version | Text Only | Print | Product List | Glossary On
Versions: 1 2 3 4 5 6 7 8 9 10 11 12
000
FTUS45 KABQ 261700
TAFROW
TAF
KROW 261739Z 2618/2718 VRB04KT P6SM BKN250
     FM262100 04006KT P6SM BKN200
     FM270300 VRB06KT P6SM SCT200=

USA.gov is the U.S. government's official web portal to all federal, state and local government web resources and services.